Shearwater — 3ESK5 — position and weather

sailwx.info

Track history (hours):
 
Tides and Currents Weather Stations Pressure Air Temp Water Temp Dewpoint Dewpoint Depression Visibility Wind Speed Wind Dir Waves Ship Positions

Shearwater

Last reported at 2017-Jun-27 12:14 UTC. Time now 2017-Jun-27 14:07 UTC.
Position S 28°48' E 032°03'.

Length 210 m; draft 7.4 m.

Type: Cargo ship. MMSI: 370338000.

Date/timePositionNaut miles runAvg speedWind from/ knotsBaromVisibWave heightAir tempDewpointWater temp
2017-Jun-27 12:14S 28°48' E 032°03'0 0.0
2017-Jun-27 04:20S 28°48' E 032°03'0 0.0
2017-Jun-27 03:56S 28°48' E 032°03'11 0.5
2017-Jun-26 04:46S 28°54' E 032°13'  
2017-Jun-22 20:50S 28°53' E 032°14'0 0.1
2017-Jun-22 20:29S 28°53' E 032°14'0 0.1
2017-Jun-22 19:11S 28°53' E 032°14'0 0.0
2017-Jun-22 18:59S 28°53' E 032°14'0 0.0
2017-Jun-22 18:29S 28°53' E 032°14'0 0.0
2017-Jun-22 17:50S 28°53' E 032°14'0 0.0
2017-Jun-22 17:29S 28°53' E 032°14'0 0.0
2017-Jun-22 16:56S 28°53' E 032°14'  
2017-Jun-20 09:15S 28°53' E 032°14'0 0.2
2017-Jun-20 08:55S 28°53' E 032°14'0 0.5
2017-Jun-20 08:26S 28°53' E 032°14'1 1.6
2017-Jun-20 08:01S 28°53' E 032°14'3 5.0
2017-Jun-20 07:31S 28°51' E 032°12'510.9
2017-Jun-20 07:01S 28°49' E 032°18'815.4
2017-Jun-20 06:30S 28°47' E 032°26'714.8
2017-Jun-20 06:00S 28°46' E 032°35'714.5
2017-Jun-20 05:31S 28°45' E 032°43'714.2
2017-Jun-20 05:00S 28°43' E 032°51'  
Track history (hours):
 
Tides and Currents Weather Stations Pressure Air Temp Water Temp Dewpoint Dewpoint Depression Visibility Wind Speed Wind Dir Waves Ship Positions

Shearwater

Last reported at 2017-Jun-27 12:14 UTC. Time now 2017-Jun-27 14:07 UTC.
Position S 28°48' E 032°03'.

Length 210 m; draft 7.4 m.

Type: Cargo ship. MMSI: 370338000.

Date/timePositionNaut miles runAvg speedWind from/ knotsBaromVisibWave heightAir tempDewpointWater temp
2017-Jun-27 12:14S 28°48' E 032°03'0 0.0
2017-Jun-27 04:20S 28°48' E 032°03'0 0.0
2017-Jun-27 03:56S 28°48' E 032°03'11 0.5
2017-Jun-26 04:46S 28°54' E 032°13'  
2017-Jun-22 20:50S 28°53' E 032°14'0 0.1
2017-Jun-22 20:29S 28°53' E 032°14'0 0.1
2017-Jun-22 19:11S 28°53' E 032°14'0 0.0
2017-Jun-22 18:59S 28°53' E 032°14'0 0.0
2017-Jun-22 18:29S 28°53' E 032°14'0 0.0
2017-Jun-22 17:50S 28°53' E 032°14'0 0.0
2017-Jun-22 17:29S 28°53' E 032°14'0 0.0
2017-Jun-22 16:56S 28°53' E 032°14'  
2017-Jun-20 09:15S 28°53' E 032°14'0 0.2
2017-Jun-20 08:55S 28°53' E 032°14'0 0.5
2017-Jun-20 08:26S 28°53' E 032°14'1 1.6
2017-Jun-20 08:01S 28°53' E 032°14'3 5.0
2017-Jun-20 07:31S 28°51' E 032°12'510.9
2017-Jun-20 07:01S 28°49' E 032°18'815.4
2017-Jun-20 06:30S 28°47' E 032°26'714.8
2017-Jun-20 06:00S 28°46' E 032°35'714.5
2017-Jun-20 05:31S 28°45' E 032°43'714.2
2017-Jun-20 05:00S 28°43' E 032°51'  

Dump ship's entire track history